sensor_id;sensor_type;location;lat;lon;timestamp;P1;durP1;ratioP1;P2;durP2;ratioP2
8704;SDS011;4389;41.932;25.904;2022-12-20T00:01:05;17.50;;;11.23;;
8704;SDS011;4389;41.932;25.904;2022-12-20T00:03:33;16.20;;;10.33;;
8704;SDS011;4389;41.932;25.904;2022-12-20T00:06:01;20.47;;;13.00;;
8704;SDS011;4389;41.932;25.904;2022-12-20T00:08:28;32.30;;;19.07;;
8704;SDS011;4389;41.932;25.904;2022-12-20T00:10:55;24.03;;;14.53;;
8704;SDS011;4389;41.932;25.904;2022-12-20T00:13:25;16.73;;;9.17;;
8704;SDS011;4389;41.932;25.904;2022-12-20T00:16:01;12.87;;;9.20;;
8704;SDS011;4389;41.932;25.904;2022-12-20T00:18:29;14.83;;;9.77;;
8704;SDS011;4389;41.932;25.904;2022-12-20T00:20:56;15.97;;;9.77;;
8704;SDS011;4389;41.932;25.904;2022-12-20T00:23:25;17.97;;;10.50;;
8704;SDS011;4389;41.932;25.904;2022-12-20T00:25:58;16.77;;;10.00;;
8704;SDS011;4389;41.932;25.904;2022-12-20T00:28:26;14.30;;;9.67;;
8704;SDS011;4389;41.932;25.904;2022-12-20T00:30:53;16.47;;;8.87;;
8704;SDS011;4389;41.932;25.904;2022-12-20T00:33:20;14.97;;;8.57;;
8704;SDS011;4389;41.932;25.904;2022-12-20T00:35:46;14.47;;;9.40;;
8704;SDS011;4389;41.932;25.904;2022-12-20T00:38:13;14.43;;;8.63;;
8704;SDS011;4389;41.932;25.904;2022-12-20T00:40:42;16.23;;;9.67;;
8704;SDS011;4389;41.932;25.904;2022-12-20T00:43:08;17.03;;;9.03;;
8704;SDS011;4389;41.932;25.904;2022-12-20T00:45:35;12.77;;;8.27;;
8704;SDS011;4389;41.932;25.904;2022-12-20T00:48:02;15.73;;;10.20;;
8704;SDS011;4389;41.932;25.904;2022-12-20T00:50:30;12.77;;;8.97;;
8704;SDS011;4389;41.932;25.904;2022-12-20T00:52:56;20.67;;;8.23;;
8704;SDS011;4389;41.932;25.904;2022-12-20T00:55:23;13.57;;;8.03;;
8704;SDS011;4389;41.932;25.904;2022-12-20T00:57:51;15.57;;;8.17;;
8704;SDS011;4389;41.932;25.904;2022-12-20T01:00:19;21.80;;;8.33;;
8704;SDS011;4389;41.932;25.904;2022-12-20T01:02:46;14.67;;;8.90;;
8704;SDS011;4389;41.932;25.904;2022-12-20T01:05:13;15.67;;;8.30;;
8704;SDS011;4389;41.932;25.904;2022-12-20T01:07:40;13.40;;;8.53;;
8704;SDS011;4389;41.932;25.904;2022-12-20T01:10:07;11.33;;;8.50;;
8704;SDS011;4389;41.932;25.904;2022-12-20T01:12:35;19.03;;;8.20;;
8704;SDS011;4389;41.932;25.904;2022-12-20T01:15:04;12.13;;;8.47;;
8704;SDS011;4389;41.932;25.904;2022-12-20T01:17:32;14.83;;;8.23;;
8704;SDS011;4389;41.932;25.904;2022-12-20T01:19:59;13.87;;;8.67;;
8704;SDS011;4389;41.932;25.904;2022-12-20T01:22:26;17.47;;;9.60;;
8704;SDS011;4389;41.932;25.904;2022-12-20T01:24:53;18.43;;;8.87;;
8704;SDS011;4389;41.932;25.904;2022-12-20T01:27:20;17.57;;;9.97;;
8704;SDS011;4389;41.932;25.904;2022-12-20T01:29:47;14.73;;;8.93;;
8704;SDS011;4389;41.932;25.904;2022-12-20T01:32:15;16.80;;;9.13;;
8704;SDS011;4389;41.932;25.904;2022-12-20T01:34:42;14.60;;;9.33;;
8704;SDS011;4389;41.932;25.904;2022-12-20T01:37:09;15.87;;;9.07;;
8704;SDS011;4389;41.932;25.904;2022-12-20T01:39:36;17.07;;;9.80;;
8704;SDS011;4389;41.932;25.904;2022-12-20T01:42:03;16.40;;;9.33;;
8704;SDS011;4389;41.932;25.904;2022-12-20T01:47:25;17.10;;;9.30;;
8704;SDS011;4389;41.932;25.904;2022-12-20T01:49:57;14.17;;;8.57;;
8704;SDS011;4389;41.932;25.904;2022-12-20T01:52:27;22.77;;;10.00;;
8704;SDS011;4389;41.932;25.904;2022-12-20T01:55:00;19.10;;;10.17;;
8704;SDS011;4389;41.932;25.904;2022-12-20T01:57:31;15.50;;;9.13;;
8704;SDS011;4389;41.932;25.904;2022-12-20T02:00:02;17.10;;;9.67;;
8704;SDS011;4389;41.932;25.904;2022-12-20T02:02:32;15.40;;;9.70;;
8704;SDS011;4389;41.932;25.904;2022-12-20T02:04:58;16.50;;;9.90;;
8704;SDS011;4389;41.932;25.904;2022-12-20T02:07:26;17.83;;;9.53;;
8704;SDS011;4389;41.932;25.904;2022-12-20T02:09:56;14.57;;;9.53;;
8704;SDS011;4389;41.932;25.904;2022-12-20T02:12:27;15.10;;;8.60;;
8704;SDS011;4389;41.932;25.904;2022-12-20T02:15:03;15.97;;;9.63;;
8704;SDS011;4389;41.932;25.904;2022-12-20T02:17:50;18.03;;;9.63;;
8704;SDS011;4389;41.932;25.904;2022-12-20T02:26:34;16.60;;;9.17;;
8704;SDS011;4389;41.932;25.904;2022-12-20T02:29:29;14.30;;;7.97;;
8704;SDS011;4389;41.932;25.904;2022-12-20T02:32:03;12.53;;;8.53;;
8704;SDS011;4389;41.932;25.904;2022-12-20T02:34:36;16.63;;;8.50;;
8704;SDS011;4389;41.932;25.904;2022-12-20T02:37:06;15.90;;;9.90;;
8704;SDS011;4389;41.932;25.904;2022-12-20T02:39:33;15.27;;;9.83;;
8704;SDS011;4389;41.932;25.904;2022-12-20T02:42:03;16.30;;;10.00;;
8704;SDS011;4389;41.932;25.904;2022-12-20T02:44:33;20.97;;;9.23;;
8704;SDS011;4389;41.932;25.904;2022-12-20T02:47:23;15.93;;;9.77;;
8704;SDS011;4389;41.932;25.904;2022-12-20T02:49:52;17.27;;;9.63;;
8704;SDS011;4389;41.932;25.904;2022-12-20T02:52:21;18.10;;;10.40;;
8704;SDS011;4389;41.932;25.904;2022-12-20T02:54:50;25.00;;;9.77;;
8704;SDS011;4389;41.932;25.904;2022-12-20T02:57:19;21.93;;;9.90;;
8704;SDS011;4389;41.932;25.904;2022-12-20T02:59:54;17.07;;;9.33;;
8704;SDS011;4389;41.932;25.904;2022-12-20T03:02:28;21.07;;;9.33;;
8704;SDS011;4389;41.932;25.904;2022-12-20T03:05:16;16.20;;;10.57;;
8704;SDS011;4389;41.932;25.904;2022-12-20T03:07:45;18.23;;;10.43;;
8704;SDS011;4389;41.932;25.904;2022-12-20T03:10:12;21.00;;;10.93;;
8704;SDS011;4389;41.932;25.904;2022-12-20T03:12:39;13.60;;;9.37;;
8704;SDS011;4389;41.932;25.904;2022-12-20T03:15:06;18.47;;;10.23;;
8704;SDS011;4389;41.932;25.904;2022-12-20T03:17:35;18.93;;;10.67;;
8704;SDS011;4389;41.932;25.904;2022-12-20T03:20:02;16.43;;;9.43;;
8704;SDS011;4389;41.932;25.904;2022-12-20T03:22:30;17.47;;;9.97;;
8704;SDS011;4389;41.932;25.904;2022-12-20T03:24:57;16.40;;;9.07;;
8704;SDS011;4389;41.932;25.904;2022-12-20T03:27:24;17.83;;;10.37;;
8704;SDS011;4389;41.932;25.904;2022-12-20T03:29:52;18.17;;;10.67;;
8704;SDS011;4389;41.932;25.904;2022-12-20T03:32:19;16.07;;;9.63;;
8704;SDS011;4389;41.932;25.904;2022-12-20T03:34:48;16.73;;;10.03;;
8704;SDS011;4389;41.932;25.904;2022-12-20T03:37:15;21.07;;;10.10;;
8704;SDS011;4389;41.932;25.904;2022-12-20T03:39:42;18.93;;;10.00;;
8704;SDS011;4389;41.932;25.904;2022-12-20T03:42:09;18.83;;;9.87;;
8704;SDS011;4389;41.932;25.904;2022-12-20T03:44:35;18.17;;;10.53;;
8704;SDS011;4389;41.932;25.904;2022-12-20T03:47:02;20.17;;;11.30;;
8704;SDS011;4389;41.932;25.904;2022-12-20T03:49:29;20.77;;;10.77;;
8704;SDS011;4389;41.932;25.904;2022-12-20T03:51:57;18.23;;;10.73;;
8704;SDS011;4389;41.932;25.904;2022-12-20T03:54:25;19.27;;;10.27;;
8704;SDS011;4389;41.932;25.904;2022-12-20T03:56:52;32.83;;;10.63;;
8704;SDS011;4389;41.932;25.904;2022-12-20T03:59:19;19.53;;;11.13;;
8704;SDS011;4389;41.932;25.904;2022-12-20T04:01:46;17.13;;;10.50;;
8704;SDS011;4389;41.932;25.904;2022-12-20T04:04:13;16.90;;;10.90;;
8704;SDS011;4389;41.932;25.904;2022-12-20T04:06:41;27.77;;;15.73;;
8704;SDS011;4389;41.932;25.904;2022-12-20T04:09:09;16.37;;;10.93;;
8704;SDS011;4389;41.932;25.904;2022-12-20T04:11:36;16.37;;;10.37;;
8704;SDS011;4389;41.932;25.904;2022-12-20T04:14:03;15.77;;;10.73;;
8704;SDS011;4389;41.932;25.904;2022-12-20T04:16:31;19.33;;;10.73;;
8704;SDS011;4389;41.932;25.904;2022-12-20T04:18:58;17.00;;;11.53;;
8704;SDS011;4389;41.932;25.904;2022-12-20T04:21:26;19.63;;;11.87;;
8704;SDS011;4389;41.932;25.904;2022-12-20T04:23:55;18.17;;;10.87;;
8704;SDS011;4389;41.932;25.904;2022-12-20T04:26:24;23.47;;;11.27;;
8704;SDS011;4389;41.932;25.904;2022-12-20T04:28:51;23.00;;;11.70;;
8704;SDS011;4389;41.932;25.904;2022-12-20T04:31:18;39.60;;;18.87;;
8704;SDS011;4389;41.932;25.904;2022-12-20T04:33:45;32.47;;;18.57;;
8704;SDS011;4389;41.932;25.904;2022-12-20T04:36:12;37.53;;;21.97;;
8704;SDS011;4389;41.932;25.904;2022-12-20T04:38:40;48.20;;;31.13;;
8704;SDS011;4389;41.932;25.904;2022-12-20T04:41:07;38.10;;;22.27;;
8704;SDS011;4389;41.932;25.904;2022-12-20T04:43:36;31.17;;;18.50;;
8704;SDS011;4389;41.932;25.904;2022-12-20T04:46:03;25.17;;;14.27;;
8704;SDS011;4389;41.932;25.904;2022-12-20T04:48:30;17.63;;;12.83;;
8704;SDS011;4389;41.932;25.904;2022-12-20T04:50:57;24.30;;;11.23;;
8704;SDS011;4389;41.932;25.904;2022-12-20T04:53:24;19.03;;;11.20;;
8704;SDS011;4389;41.932;25.904;2022-12-20T04:56:08;18.47;;;10.97;;
8704;SDS011;4389;41.932;25.904;2022-12-20T04:58:36;22.10;;;12.87;;
8704;SDS011;4389;41.932;25.904;2022-12-20T05:01:03;16.83;;;11.07;;
8704;SDS011;4389;41.932;25.904;2022-12-20T05:03:30;19.40;;;11.80;;
8704;SDS011;4389;41.932;25.904;2022-12-20T05:05:57;20.80;;;11.50;;
8704;SDS011;4389;41.932;25.904;2022-12-20T05:08:24;21.83;;;12.87;;
8704;SDS011;4389;41.932;25.904;2022-12-20T05:10:51;19.77;;;11.77;;
8704;SDS011;4389;41.932;25.904;2022-12-20T05:13:17;21.80;;;14.00;;
8704;SDS011;4389;41.932;25.904;2022-12-20T05:15:48;17.53;;;12.13;;
8704;SDS011;4389;41.932;25.904;2022-12-20T05:18:16;24.50;;;11.67;;
8704;SDS011;4389;41.932;25.904;2022-12-20T05:20:43;22.57;;;13.27;;
8704;SDS011;4389;41.932;25.904;2022-12-20T05:23:10;18.83;;;11.43;;
8704;SDS011;4389;41.932;25.904;2022-12-20T05:25:54;21.73;;;12.30;;
8704;SDS011;4389;41.932;25.904;2022-12-20T05:28:38;25.77;;;12.60;;
8704;SDS011;4389;41.932;25.904;2022-12-20T05:31:07;22.80;;;13.40;;
8704;SDS011;4389;41.932;25.904;2022-12-20T05:33:34;32.27;;;15.77;;
8704;SDS011;4389;41.932;25.904;2022-12-20T05:36:01;24.30;;;12.13;;
8704;SDS011;4389;41.932;25.904;2022-12-20T05:38:27;33.83;;;15.43;;
8704;SDS011;4389;41.932;25.904;2022-12-20T05:40:56;41.77;;;14.30;;
8704;SDS011;4389;41.932;25.904;2022-12-20T05:43:22;20.77;;;13.70;;
8704;SDS011;4389;41.932;25.904;2022-12-20T05:45:50;24.33;;;12.90;;
8704;SDS011;4389;41.932;25.904;2022-12-20T05:48:20;24.33;;;13.73;;
8704;SDS011;4389;41.932;25.904;2022-12-20T05:50:47;21.23;;;12.50;;
8704;SDS011;4389;41.932;25.904;2022-12-20T05:53:14;26.97;;;14.90;;
8704;SDS011;4389;41.932;25.904;2022-12-20T05:55:42;24.87;;;12.63;;
8704;SDS011;4389;41.932;25.904;2022-12-20T05:58:10;30.03;;;13.40;;
8704;SDS011;4389;41.932;25.904;2022-12-20T06:00:38;20.70;;;11.80;;
8704;SDS011;4389;41.932;25.904;2022-12-20T06:03:06;29.07;;;13.57;;
8704;SDS011;4389;41.932;25.904;2022-12-20T06:05:35;27.07;;;14.87;;
8704;SDS011;4389;41.932;25.904;2022-12-20T06:08:02;33.50;;;16.63;;
8704;SDS011;4389;41.932;25.904;2022-12-20T06:10:30;33.37;;;15.23;;
8704;SDS011;4389;41.932;25.904;2022-12-20T06:12:57;29.80;;;17.70;;
8704;SDS011;4389;41.932;25.904;2022-12-20T06:15:24;20.23;;;13.47;;
8704;SDS011;4389;41.932;25.904;2022-12-20T06:17:51;24.47;;;13.67;;
8704;SDS011;4389;41.932;25.904;2022-12-20T06:20:18;20.73;;;13.03;;
8704;SDS011;4389;41.932;25.904;2022-12-20T06:22:46;21.10;;;14.20;;
8704;SDS011;4389;41.932;25.904;2022-12-20T06:25:13;27.13;;;14.17;;
8704;SDS011;4389;41.932;25.904;2022-12-20T06:27:40;24.40;;;13.60;;
8704;SDS011;4389;41.932;25.904;2022-12-20T06:30:08;25.97;;;12.07;;
8704;SDS011;4389;41.932;25.904;2022-12-20T06:32:36;34.70;;;12.50;;
8704;SDS011;4389;41.932;25.904;2022-12-20T06:35:04;19.30;;;12.40;;
8704;SDS011;4389;41.932;25.904;2022-12-20T06:37:31;23.07;;;14.07;;
8704;SDS011;4389;41.932;25.904;2022-12-20T06:40:00;24.50;;;15.30;;
8704;SDS011;4389;41.932;25.904;2022-12-20T06:42:27;22.53;;;13.07;;
8704;SDS011;4389;41.932;25.904;2022-12-20T06:44:53;30.50;;;14.17;;
8704;SDS011;4389;41.932;25.904;2022-12-20T06:47:20;39.90;;;18.83;;
8704;SDS011;4389;41.932;25.904;2022-12-20T06:49:47;28.07;;;17.53;;
8704;SDS011;4389;41.932;25.904;2022-12-20T06:52:14;26.43;;;16.90;;
8704;SDS011;4389;41.932;25.904;2022-12-20T06:54:41;23.63;;;16.37;;
8704;SDS011;4389;41.932;25.904;2022-12-20T06:57:09;30.03;;;17.37;;
8704;SDS011;4389;41.932;25.904;2022-12-20T06:59:36;20.20;;;14.00;;
8704;SDS011;4389;41.932;25.904;2022-12-20T07:02:03;19.33;;;12.57;;
8704;SDS011;4389;41.932;25.904;2022-12-20T07:04:30;21.80;;;13.93;;
8704;SDS011;4389;41.932;25.904;2022-12-20T07:06:57;27.60;;;14.37;;
8704;SDS011;4389;41.932;25.904;2022-12-20T07:09:24;31.53;;;16.17;;
8704;SDS011;4389;41.932;25.904;2022-12-20T07:11:50;30.07;;;15.33;;
8704;SDS011;4389;41.932;25.904;2022-12-20T07:14:19;22.93;;;13.77;;
8704;SDS011;4389;41.932;25.904;2022-12-20T07:16:46;22.60;;;14.20;;
8704;SDS011;4389;41.932;25.904;2022-12-20T07:19:14;28.47;;;14.63;;
8704;SDS011;4389;41.932;25.904;2022-12-20T07:21:41;26.30;;;15.07;;
8704;SDS011;4389;41.932;25.904;2022-12-20T07:24:09;30.07;;;18.90;;
8704;SDS011;4389;41.932;25.904;2022-12-20T07:26:36;28.83;;;16.73;;
8704;SDS011;4389;41.932;25.904;2022-12-20T07:29:03;28.87;;;13.87;;
8704;SDS011;4389;41.932;25.904;2022-12-20T07:31:32;23.73;;;15.00;;
8704;SDS011;4389;41.932;25.904;2022-12-20T07:33:58;20.97;;;13.37;;
8704;SDS011;4389;41.932;25.904;2022-12-20T07:36:25;23.70;;;13.27;;
8704;SDS011;4389;41.932;25.904;2022-12-20T07:38:52;31.23;;;16.77;;
8704;SDS011;4389;41.932;25.904;2022-12-20T07:41:19;21.20;;;14.47;;
8704;SDS011;4389;41.932;25.904;2022-12-20T07:43:46;23.23;;;15.20;;
8704;SDS011;4389;41.932;25.904;2022-12-20T07:46:13;27.40;;;16.23;;
8704;SDS011;4389;41.932;25.904;2022-12-20T07:48:43;26.30;;;15.17;;
8704;SDS011;4389;41.932;25.904;2022-12-20T07:51:11;21.67;;;14.00;;
8704;SDS011;4389;41.932;25.904;2022-12-20T07:53:42;19.43;;;14.00;;
8704;SDS011;4389;41.932;25.904;2022-12-20T07:56:13;24.07;;;15.20;;
8704;SDS011;4389;41.932;25.904;2022-12-20T07:58:41;25.10;;;15.10;;
8704;SDS011;4389;41.932;25.904;2022-12-20T08:01:10;26.67;;;14.03;;
8704;SDS011;4389;41.932;25.904;2022-12-20T08:03:39;31.90;;;15.10;;
8704;SDS011;4389;41.932;25.904;2022-12-20T08:06:10;23.43;;;15.27;;
8704;SDS011;4389;41.932;25.904;2022-12-20T08:08:41;18.20;;;11.53;;
8704;SDS011;4389;41.932;25.904;2022-12-20T08:11:11;23.00;;;14.80;;
8704;SDS011;4389;41.932;25.904;2022-12-20T08:13:39;27.13;;;15.60;;
8704;SDS011;4389;41.932;25.904;2022-12-20T08:16:06;24.67;;;14.77;;
8704;SDS011;4389;41.932;25.904;2022-12-20T08:18:33;21.73;;;15.00;;
8704;SDS011;4389;41.932;25.904;2022-12-20T08:21:00;33.90;;;16.37;;
8704;SDS011;4389;41.932;25.904;2022-12-20T08:23:28;33.67;;;13.83;;
8704;SDS011;4389;41.932;25.904;2022-12-20T08:25:55;22.40;;;13.53;;
8704;SDS011;4389;41.932;25.904;2022-12-20T08:28:22;28.50;;;16.60;;
8704;SDS011;4389;41.932;25.904;2022-12-20T08:30:49;26.40;;;13.60;;
8704;SDS011;4389;41.932;25.904;2022-12-20T08:33:16;21.63;;;14.00;;
8704;SDS011;4389;41.932;25.904;2022-12-20T08:35:43;23.73;;;13.47;;
8704;SDS011;4389;41.932;25.904;2022-12-20T08:38:10;22.57;;;13.73;;
8704;SDS011;4389;41.932;25.904;2022-12-20T08:40:39;25.83;;;14.37;;
8704;SDS011;4389;41.932;25.904;2022-12-20T08:43:06;19.90;;;14.43;;
8704;SDS011;4389;41.932;25.904;2022-12-20T08:45:33;18.57;;;11.93;;
8704;SDS011;4389;41.932;25.904;2022-12-20T08:47:59;19.77;;;13.10;;
8704;SDS011;4389;41.932;25.904;2022-12-20T08:50:27;23.53;;;13.43;;
8704;SDS011;4389;41.932;25.904;2022-12-20T08:52:54;21.30;;;12.70;;
8704;SDS011;4389;41.932;25.904;2022-12-20T08:55:21;19.87;;;12.40;;
8704;SDS011;4389;41.932;25.904;2022-12-20T08:57:49;25.27;;;10.53;;
8704;SDS011;4389;41.932;25.904;2022-12-20T09:00:16;23.03;;;11.60;;
8704;SDS011;4389;41.932;25.904;2022-12-20T09:02:43;29.77;;;12.57;;
8704;SDS011;4389;41.932;25.904;2022-12-20T09:05:11;17.43;;;11.83;;
8704;SDS011;4389;41.932;25.904;2022-12-20T09:07:38;15.60;;;9.53;;
8704;SDS011;4389;41.932;25.904;2022-12-20T09:10:06;18.33;;;10.67;;
8704;SDS011;4389;41.932;25.904;2022-12-20T09:12:35;20.57;;;13.53;;
8704;SDS011;4389;41.932;25.904;2022-12-20T09:15:03;15.47;;;10.03;;
8704;SDS011;4389;41.932;25.904;2022-12-20T09:17:31;22.90;;;11.93;;
8704;SDS011;4389;41.932;25.904;2022-12-20T09:19:58;15.83;;;11.13;;
8704;SDS011;4389;41.932;25.904;2022-12-20T09:22:27;21.33;;;11.43;;
8704;SDS011;4389;41.932;25.904;2022-12-20T09:24:54;15.33;;;11.13;;
8704;SDS011;4389;41.932;25.904;2022-12-20T09:27:21;18.93;;;10.53;;
8704;SDS011;4389;41.932;25.904;2022-12-20T09:29:48;13.37;;;9.23;;
8704;SDS011;4389;41.932;25.904;2022-12-20T09:32:16;19.47;;;11.23;;
8704;SDS011;4389;41.932;25.904;2022-12-20T09:34:43;17.33;;;9.90;;
8704;SDS011;4389;41.932;25.904;2022-12-20T09:37:11;23.40;;;10.83;;
8704;SDS011;4389;41.932;25.904;2022-12-20T09:39:38;15.07;;;10.07;;
8704;SDS011;4389;41.932;25.904;2022-12-20T09:42:05;17.23;;;9.97;;
8704;SDS011;4389;41.932;25.904;2022-12-20T09:44:34;21.20;;;9.00;;
8704;SDS011;4389;41.932;25.904;2022-12-20T09:47:04;17.70;;;8.63;;
8704;SDS011;4389;41.932;25.904;2022-12-20T09:49:38;13.97;;;9.90;;
8704;SDS011;4389;41.932;25.904;2022-12-20T09:52:13;25.10;;;8.27;;
8704;SDS011;4389;41.932;25.904;2022-12-20T09:55:00;15.73;;;10.13;;
8704;SDS011;4389;41.932;25.904;2022-12-20T09:57:39;12.83;;;8.30;;
8704;SDS011;4389;41.932;25.904;2022-12-20T10:00:16;16.73;;;10.07;;
8704;SDS011;4389;41.932;25.904;2022-12-20T10:02:45;17.93;;;10.53;;
8704;SDS011;4389;41.932;25.904;2022-12-20T10:05:15;22.83;;;10.50;;
8704;SDS011;4389;41.932;25.904;2022-12-20T10:07:47;15.23;;;10.17;;
8704;SDS011;4389;41.932;25.904;2022-12-20T10:10:25;13.40;;;8.80;;
8704;SDS011;4389;41.932;25.904;2022-12-20T10:13:14;13.53;;;8.13;;
8704;SDS011;4389;41.932;25.904;2022-12-20T10:15:50;16.87;;;11.90;;
8704;SDS011;4389;41.932;25.904;2022-12-20T10:18:23;15.03;;;9.10;;
8704;SDS011;4389;41.932;25.904;2022-12-20T10:21:03;18.30;;;9.07;;
8704;SDS011;4389;41.932;25.904;2022-12-20T10:23:38;11.80;;;8.53;;
8704;SDS011;4389;41.932;25.904;2022-12-20T10:26:10;18.33;;;9.13;;
8704;SDS011;4389;41.932;25.904;2022-12-20T10:28:38;13.90;;;9.67;;
8704;SDS011;4389;41.932;25.904;2022-12-20T10:31:06;18.47;;;11.80;;
8704;SDS011;4389;41.932;25.904;2022-12-20T10:33:38;17.50;;;11.03;;
8704;SDS011;4389;41.932;25.904;2022-12-20T10:36:17;13.93;;;9.13;;
8704;SDS011;4389;41.932;25.904;2022-12-20T10:38:47;13.43;;;8.47;;
8704;SDS011;4389;41.932;25.904;2022-12-20T10:41:15;20.93;;;9.77;;
8704;SDS011;4389;41.932;25.904;2022-12-20T10:43:44;11.90;;;8.43;;
8704;SDS011;4389;41.932;25.904;2022-12-20T10:46:13;13.23;;;8.73;;
8704;SDS011;4389;41.932;25.904;2022-12-20T10:48:42;13.20;;;9.07;;
8704;SDS011;4389;41.932;25.904;2022-12-20T10:51:14;13.00;;;7.70;;
8704;SDS011;4389;41.932;25.904;2022-12-20T10:53:51;14.53;;;8.50;;
8704;SDS011;4389;41.932;25.904;2022-12-20T10:56:21;9.43;;;7.23;;
8704;SDS011;4389;41.932;25.904;2022-12-20T10:58:55;13.67;;;7.57;;
8704;SDS011;4389;41.932;25.904;2022-12-20T11:01:25;14.13;;;7.43;;
8704;SDS011;4389;41.932;25.904;2022-12-20T11:03:57;9.40;;;7.50;;
8704;SDS011;4389;41.932;25.904;2022-12-20T11:06:27;17.80;;;7.87;;
8704;SDS011;4389;41.932;25.904;2022-12-20T11:09:16;11.63;;;8.13;;
8704;SDS011;4389;41.932;25.904;2022-12-20T11:11:58;10.33;;;7.10;;
8704;SDS011;4389;41.932;25.904;2022-12-20T11:14:27;11.93;;;7.50;;
8704;SDS011;4389;41.932;25.904;2022-12-20T11:16:55;12.23;;;6.30;;
8704;SDS011;4389;41.932;25.904;2022-12-20T11:22:15;20.03;;;7.00;;
8704;SDS011;4389;41.932;25.904;2022-12-20T11:24:54;9.53;;;5.90;;
8704;SDS011;4389;41.932;25.904;2022-12-20T11:27:30;7.87;;;4.83;;
8704;SDS011;4389;41.932;25.904;2022-12-20T11:30:07;8.07;;;5.83;;
8704;SDS011;4389;41.932;25.904;2022-12-20T11:35:51;9.97;;;5.80;;
8704;SDS011;4389;41.932;25.904;2022-12-20T11:38:29;10.33;;;5.37;;
8704;SDS011;4389;41.932;25.904;2022-12-20T11:41:14;5.10;;;4.23;;
8704;SDS011;4389;41.932;25.904;2022-12-20T11:43:50;9.07;;;4.00;;
8704;SDS011;4389;41.932;25.904;2022-12-20T11:46:30;7.03;;;4.30;;
8704;SDS011;4389;41.932;25.904;2022-12-20T11:49:13;7.33;;;4.27;;
8704;SDS011;4389;41.932;25.904;2022-12-20T11:51:56;6.90;;;4.47;;
8704;SDS011;4389;41.932;25.904;2022-12-20T11:54:31;11.23;;;4.50;;
8704;SDS011;4389;41.932;25.904;2022-12-20T11:57:06;11.83;;;4.07;;
8704;SDS011;4389;41.932;25.904;2022-12-20T11:59:42;7.37;;;3.97;;
8704;SDS011;4389;41.932;25.904;2022-12-20T12:02:15;9.17;;;4.70;;
8704;SDS011;4389;41.932;25.904;2022-12-20T12:04:49;6.37;;;4.60;;
8704;SDS011;4389;41.932;25.904;2022-12-20T12:07:22;9.17;;;4.07;;
8704;SDS011;4389;41.932;25.904;2022-12-20T12:09:54;10.20;;;4.20;;
8704;SDS011;4389;41.932;25.904;2022-12-20T12:12:28;9.60;;;4.33;;
8704;SDS011;4389;41.932;25.904;2022-12-20T12:15:00;12.33;;;4.50;;
8704;SDS011;4389;41.932;25.904;2022-12-20T12:17:37;11.30;;;4.47;;
8704;SDS011;4389;41.932;25.904;2022-12-20T12:20:17;9.10;;;4.43;;
8704;SDS011;4389;41.932;25.904;2022-12-20T12:22:50;7.70;;;3.60;;
8704;SDS011;4389;41.932;25.904;2022-12-20T12:25:22;5.73;;;4.33;;
8704;SDS011;4389;41.932;25.904;2022-12-20T12:27:50;7.70;;;3.67;;
8704;SDS011;4389;41.932;25.904;2022-12-20T12:30:17;8.97;;;3.80;;
8704;SDS011;4389;41.932;25.904;2022-12-20T12:32:46;12.23;;;5.53;;
8704;SDS011;4389;41.932;25.904;2022-12-20T12:35:24;8.17;;;4.10;;
8704;SDS011;4389;41.932;25.904;2022-12-20T12:38:15;9.10;;;4.70;;
8704;SDS011;4389;41.932;25.904;2022-12-20T12:41:14;9.03;;;4.10;;
8704;SDS011;4389;41.932;25.904;2022-12-20T12:43:57;20.03;;;4.60;;
8704;SDS011;4389;41.932;25.904;2022-12-20T12:46:31;10.73;;;4.17;;
8704;SDS011;4389;41.932;25.904;2022-12-20T12:49:02;6.33;;;4.50;;
8704;SDS011;4389;41.932;25.904;2022-12-20T12:51:33;5.73;;;3.97;;
8704;SDS011;4389;41.932;25.904;2022-12-20T12:54:03;6.70;;;3.57;;
8704;SDS011;4389;41.932;25.904;2022-12-20T12:56:43;12.37;;;4.27;;
8704;SDS011;4389;41.932;25.904;2022-12-20T12:59:21;7.90;;;4.87;;
8704;SDS011;4389;41.932;25.904;2022-12-20T13:07:59;5.57;;;3.97;;
8704;SDS011;4389;41.932;25.904;2022-12-20T13:13:24;10.57;;;4.50;;
8704;SDS011;4389;41.932;25.904;2022-12-20T13:16:05;6.97;;;3.50;;
8704;SDS011;4389;41.932;25.904;2022-12-20T13:18:37;5.87;;;3.60;;
8704;SDS011;4389;41.932;25.904;2022-12-20T13:27:15;10.97;;;4.67;;
8704;SDS011;4389;41.932;25.904;2022-12-20T13:30:00;15.23;;;4.43;;
8704;SDS011;4389;41.932;25.904;2022-12-20T13:39:00;8.63;;;3.67;;
8704;SDS011;4389;41.932;25.904;2022-12-20T13:41:43;8.60;;;4.10;;
8704;SDS011;4389;41.932;25.904;2022-12-20T13:44:23;6.67;;;3.83;;
8704;SDS011;4389;41.932;25.904;2022-12-20T13:47:02;7.87;;;3.87;;
8704;SDS011;4389;41.932;25.904;2022-12-20T13:49:38;13.50;;;7.03;;
8704;SDS011;4389;41.932;25.904;2022-12-20T13:52:19;7.83;;;3.77;;
8704;SDS011;4389;41.932;25.904;2022-12-20T13:54:51;8.70;;;3.50;;
8704;SDS011;4389;41.932;25.904;2022-12-20T13:57:22;6.37;;;4.13;;
8704;SDS011;4389;41.932;25.904;2022-12-20T13:59:54;14.03;;;4.17;;
8704;SDS011;4389;41.932;25.904;2022-12-20T14:02:23;20.23;;;4.87;;
8704;SDS011;4389;41.932;25.904;2022-12-20T14:04:56;10.80;;;3.97;;
8704;SDS011;4389;41.932;25.904;2022-12-20T14:07:27;7.00;;;3.77;;
8704;SDS011;4389;41.932;25.904;2022-12-20T14:09:57;8.33;;;4.37;;
8704;SDS011;4389;41.932;25.904;2022-12-20T14:12:25;6.30;;;4.30;;
8704;SDS011;4389;41.932;25.904;2022-12-20T14:14:53;18.17;;;5.10;;
8704;SDS011;4389;41.932;25.904;2022-12-20T14:17:24;60.63;;;8.13;;
8704;SDS011;4389;41.932;25.904;2022-12-20T14:20:03;11.87;;;4.63;;
8704;SDS011;4389;41.932;25.904;2022-12-20T14:22:33;19.27;;;5.73;;
8704;SDS011;4389;41.932;25.904;2022-12-20T14:25:01;18.30;;;5.63;;
8704;SDS011;4389;41.932;25.904;2022-12-20T14:27:32;18.40;;;5.13;;
8704;SDS011;4389;41.932;25.904;2022-12-20T14:30:03;19.00;;;5.47;;
8704;SDS011;4389;41.932;25.904;2022-12-20T14:32:31;21.07;;;6.07;;
8704;SDS011;4389;41.932;25.904;2022-12-20T14:34:58;15.47;;;5.47;;
8704;SDS011;4389;41.932;25.904;2022-12-20T14:37:26;26.50;;;8.63;;
8704;SDS011;4389;41.932;25.904;2022-12-20T14:39:57;8.03;;;4.77;;
8704;SDS011;4389;41.932;25.904;2022-12-20T14:42:31;14.83;;;4.50;;
8704;SDS011;4389;41.932;25.904;2022-12-20T14:45:04;10.50;;;4.47;;
8704;SDS011;4389;41.932;25.904;2022-12-20T14:47:32;11.17;;;4.80;;
8704;SDS011;4389;41.932;25.904;2022-12-20T14:50:00;6.50;;;4.50;;
8704;SDS011;4389;41.932;25.904;2022-12-20T14:52:29;11.73;;;4.27;;
8704;SDS011;4389;41.932;25.904;2022-12-20T14:55:03;16.67;;;6.10;;
8704;SDS011;4389;41.932;25.904;2022-12-20T14:57:37;9.47;;;4.60;;
8704;SDS011;4389;41.932;25.904;2022-12-20T15:00:09;15.77;;;5.43;;
8704;SDS011;4389;41.932;25.904;2022-12-20T15:02:41;7.50;;;4.63;;
8704;SDS011;4389;41.932;25.904;2022-12-20T15:08:13;8.17;;;5.00;;
8704;SDS011;4389;41.932;25.904;2022-12-20T15:10:47;16.23;;;5.20;;
8704;SDS011;4389;41.932;25.904;2022-12-20T15:13:17;8.83;;;5.67;;
8704;SDS011;4389;41.932;25.904;2022-12-20T15:15:46;11.27;;;5.97;;
8704;SDS011;4389;41.932;25.904;2022-12-20T15:18:13;8.60;;;5.37;;
8704;SDS011;4389;41.932;25.904;2022-12-20T15:20:42;9.37;;;5.23;;
8704;SDS011;4389;41.932;25.904;2022-12-20T15:23:12;10.37;;;5.97;;
8704;SDS011;4389;41.932;25.904;2022-12-20T15:25:41;13.93;;;6.00;;
8704;SDS011;4389;41.932;25.904;2022-12-20T15:28:14;27.60;;;9.63;;
8704;SDS011;4389;41.932;25.904;2022-12-20T15:30:41;39.77;;;20.70;;
8704;SDS011;4389;41.932;25.904;2022-12-20T15:33:16;61.00;;;29.03;;
8704;SDS011;4389;41.932;25.904;2022-12-20T15:35:45;32.07;;;16.07;;
8704;SDS011;4389;41.932;25.904;2022-12-20T15:38:13;18.80;;;9.27;;
8704;SDS011;4389;41.932;25.904;2022-12-20T15:40:42;30.13;;;16.50;;